createdAt,value
2019-02-05T00:01:09.762Z,19.23
2019-02-05T00:03:39.696Z,20.33
2019-02-05T00:06:10.216Z,19.90
2019-02-05T00:08:40.491Z,16.50
2019-02-05T00:11:10.705Z,19.00
2019-02-05T00:13:40.996Z,19.27
2019-02-05T00:16:11.396Z,18.63
2019-02-05T00:18:41.445Z,17.87
2019-02-05T00:21:11.236Z,20.03
2019-02-05T00:23:41.715Z,17.70
2019-02-05T00:26:11.703Z,16.70
2019-02-05T00:28:41.916Z,17.63
2019-02-05T00:31:12.275Z,17.10
2019-02-05T00:33:42.061Z,19.20
2019-02-05T00:36:12.270Z,18.33
2019-02-05T00:38:42.632Z,19.03
2019-02-05T00:41:12.851Z,18.20
2019-02-05T00:43:42.883Z,20.20
2019-02-05T00:46:13.480Z,17.27
2019-02-05T00:48:43.516Z,19.40
2019-02-05T00:51:13.599Z,19.20
2019-02-05T00:53:43.710Z,18.00
2019-02-05T00:56:17.651Z,18.80
2019-02-05T00:58:46.535Z,20.83
2019-02-05T01:01:16.887Z,21.33
2019-02-05T01:03:47.050Z,20.73
2019-02-05T01:06:17.380Z,24.03
2019-02-05T01:08:47.751Z,19.13
2019-02-05T01:11:17.669Z,19.60
2019-02-05T01:13:48.011Z,22.00
2019-02-05T01:16:18.730Z,21.30
2019-02-05T01:18:49.778Z,21.07
2019-02-05T01:21:19.779Z,20.73
2019-02-05T01:23:50.219Z,20.87
2019-02-05T01:26:29.062Z,22.60
2019-02-05T01:28:52.047Z,20.67
2019-02-05T01:31:22.207Z,22.03
2019-02-05T01:33:52.619Z,23.87
2019-02-05T01:36:22.655Z,21.07
2019-02-05T01:38:52.782Z,20.57
2019-02-05T01:41:22.894Z,20.33
2019-02-05T01:43:52.811Z,20.13
2019-02-05T01:46:22.962Z,20.50
2019-02-05T01:48:52.982Z,21.10
2019-02-05T01:51:23.102Z,20.57
2019-02-05T01:53:53.103Z,18.47
2019-02-05T01:56:23.078Z,19.00
2019-02-05T01:58:53.412Z,20.23
2019-02-05T02:01:23.491Z,19.13
2019-02-05T02:03:54.043Z,20.77
2019-02-05T02:06:24.275Z,19.27
2019-02-05T02:08:54.330Z,18.80
2019-02-05T02:11:24.711Z,21.03
2019-02-05T02:13:54.510Z,19.53
2019-02-05T02:16:25.080Z,19.97
2019-02-05T02:18:54.955Z,21.30
2019-02-05T02:21:25.800Z,19.73
2019-02-05T02:23:55.967Z,20.70
2019-02-05T02:26:26.315Z,20.33
2019-02-05T02:28:56.124Z,20.67
2019-02-05T02:31:26.425Z,21.53
2019-02-05T02:33:56.203Z,22.13
2019-02-05T02:36:26.032Z,24.23
2019-02-05T02:38:57.413Z,23.20
2019-02-05T02:41:27.377Z,24.10
2019-02-05T02:43:57.674Z,24.40
2019-02-05T02:46:28.053Z,27.53
2019-02-05T02:48:58.019Z,27.27
2019-02-05T02:51:27.949Z,26.67
2019-02-05T02:53:58.651Z,30.77
2019-02-05T02:56:28.945Z,30.10
2019-02-05T02:58:58.996Z,32.47
2019-02-05T03:01:29.802Z,32.40
2019-02-05T03:04:01.804Z,30.90
2019-02-05T03:06:31.530Z,32.57
2019-02-05T03:09:02.036Z,35.50
2019-02-05T03:11:31.651Z,32.40
2019-02-05T03:14:01.867Z,34.57
2019-02-05T03:16:32.107Z,36.27
2019-02-05T03:19:02.264Z,36.30
2019-02-05T03:21:32.346Z,35.10
2019-02-05T03:24:04.059Z,34.57
2019-02-05T03:26:34.325Z,34.23
2019-02-05T03:29:04.673Z,33.30
2019-02-05T03:31:35.027Z,36.10
2019-02-05T03:34:04.835Z,32.97
2019-02-05T03:36:34.494Z,35.00
2019-02-05T03:39:06.210Z,34.43
2019-02-05T03:41:36.300Z,29.47
2019-02-05T03:44:06.436Z,31.87
2019-02-05T03:46:36.785Z,30.80
2019-02-05T03:49:06.876Z,31.27
2019-02-05T03:51:39.811Z,31.53
2019-02-05T03:54:15.732Z,31.80
2019-02-05T03:57:03.599Z,33.87
2019-02-05T03:59:45.064Z,31.60
2019-02-05T04:02:46.316Z,31.43
2019-02-05T04:05:19.091Z,31.00
2019-02-05T04:08:06.632Z,29.93
2019-02-05T04:10:57.047Z,32.57
2019-02-05T04:13:33.691Z,30.33
2019-02-05T04:16:08.976Z,34.60
2019-02-05T04:18:47.456Z,28.43
2019-02-05T04:21:37.611Z,31.47
2019-02-05T04:24:28.639Z,31.27
2019-02-05T04:27:10.736Z,29.47
2019-02-05T04:29:58.677Z,31.07
2019-02-05T04:32:51.803Z,30.43
2019-02-05T04:35:37.347Z,28.23
2019-02-05T04:38:25.186Z,30.63
2019-02-05T04:41:04.186Z,29.93
2019-02-05T04:43:54.912Z,31.37
2019-02-05T04:46:35.289Z,31.37
2019-02-05T04:49:31.758Z,30.20
2019-02-05T04:52:34.462Z,30.23
2019-02-05T04:55:10.243Z,31.73
2019-02-05T04:57:57.968Z,30.70
2019-02-05T05:00:46.806Z,30.03
2019-02-05T05:03:35.032Z,32.43
2019-02-05T05:06:20.016Z,30.73
2019-02-05T05:09:11.958Z,33.87
2019-02-05T05:11:42.255Z,29.07
2019-02-05T05:14:12.157Z,36.43
2019-02-05T05:16:42.764Z,31.20
2019-02-05T05:19:12.703Z,29.10
2019-02-05T05:21:43.035Z,30.20
2019-02-05T05:24:13.267Z,30.50
2019-02-05T05:26:43.295Z,28.83
2019-02-05T05:29:13.679Z,31.63
2019-02-05T05:31:44.176Z,31.27
2019-02-05T05:34:14.003Z,32.20
2019-02-05T05:36:50.734Z,32.57
2019-02-05T05:39:21.133Z,31.00
2019-02-05T05:41:50.916Z,29.13
2019-02-05T05:44:20.775Z,30.10
2019-02-05T05:46:50.751Z,32.43
2019-02-05T05:49:20.704Z,30.13
2019-02-05T05:51:50.464Z,36.23
2019-02-05T05:54:20.281Z,33.57
2019-02-05T05:56:49.871Z,32.13
2019-02-05T05:59:19.702Z,33.20
2019-02-05T06:01:50.651Z,32.57
2019-02-05T06:04:20.964Z,34.33
2019-02-05T06:06:51.627Z,36.57
2019-02-05T06:09:21.586Z,33.13
2019-02-05T06:11:51.586Z,34.67
2019-02-05T06:14:21.483Z,34.80
2019-02-05T06:16:51.562Z,35.93
2019-02-05T06:19:21.327Z,34.97
2019-02-05T06:21:51.824Z,35.23
2019-02-05T06:24:21.446Z,35.23
2019-02-05T06:26:53.974Z,36.43
2019-02-05T06:29:23.668Z,34.07
2019-02-05T06:31:54.445Z,34.90
2019-02-05T06:34:24.871Z,38.70
2019-02-05T06:36:54.597Z,41.67
2019-02-05T06:39:24.521Z,38.20
2019-02-05T06:41:54.864Z,41.50
2019-02-05T06:44:24.674Z,39.73
2019-02-05T06:46:54.466Z,38.63
2019-02-05T06:49:25.098Z,42.13
2019-02-05T06:51:55.074Z,39.87
2019-02-05T06:54:25.201Z,40.53
2019-02-05T06:56:58.158Z,37.80
2019-02-05T06:59:27.922Z,36.30
2019-02-05T07:01:57.679Z,38.97
2019-02-05T07:04:27.688Z,41.57
2019-02-05T07:06:58.127Z,40.93
2019-02-05T07:09:27.982Z,42.83
2019-02-05T07:11:57.947Z,39.87
2019-02-05T07:14:29.678Z,37.97
2019-02-05T07:17:00.267Z,41.70
2019-02-05T07:19:30.819Z,44.73
2019-02-05T07:22:01.648Z,41.50
2019-02-05T07:24:31.647Z,45.37
2019-02-05T07:27:01.700Z,42.30
2019-02-05T07:29:32.097Z,42.27
2019-02-05T07:32:02.035Z,40.53
2019-02-05T07:34:33.199Z,43.00
2019-02-05T07:37:03.539Z,43.07
2019-02-05T07:39:35.235Z,46.27
2019-02-05T07:42:06.415Z,44.77
2019-02-05T07:44:36.472Z,38.40
2019-02-05T07:47:07.115Z,48.33
2019-02-05T07:49:37.915Z,42.30
2019-02-05T07:52:08.059Z,46.93
2019-02-05T07:54:38.243Z,45.07
2019-02-05T07:57:08.211Z,42.20
2019-02-05T07:59:38.371Z,37.00
2019-02-05T08:02:08.346Z,41.60
2019-02-05T08:04:41.291Z,40.37
2019-02-05T08:07:11.795Z,42.10
2019-02-05T08:09:41.831Z,36.63
2019-02-05T08:12:12.280Z,42.43
2019-02-05T08:14:43.602Z,43.10
2019-02-05T08:17:13.683Z,42.70
2019-02-05T08:19:43.767Z,44.53
2019-02-05T08:22:14.099Z,40.83
2019-02-05T08:24:43.963Z,40.67
2019-02-05T08:27:14.119Z,38.50
2019-02-05T08:29:44.370Z,38.33
2019-02-05T08:32:14.910Z,37.07
2019-02-05T08:34:44.883Z,39.00
2019-02-05T08:37:16.218Z,45.80
2019-02-05T08:39:46.796Z,37.07
2019-02-05T08:42:16.836Z,36.70
2019-02-05T08:44:46.883Z,41.97
2019-02-05T08:47:17.431Z,42.33
2019-02-05T08:49:53.231Z,39.37
2019-02-05T08:52:25.876Z,45.57
2019-02-05T08:54:57.410Z,40.03
2019-02-05T08:57:27.470Z,42.60
2019-02-05T08:59:57.351Z,40.60
2019-02-05T09:02:28.306Z,44.70
2019-02-05T09:04:58.251Z,48.57
2019-02-05T09:07:28.512Z,45.10
2019-02-05T09:09:59.211Z,40.73
2019-02-05T09:12:30.591Z,44.50
2019-02-05T09:15:00.700Z,44.67
2019-02-05T09:17:30.652Z,47.93
2019-02-05T09:20:00.724Z,42.23
2019-02-05T09:22:34.044Z,44.37
2019-02-05T09:25:04.139Z,42.63
2019-02-05T09:27:34.302Z,43.37
2019-02-05T09:30:05.710Z,46.70
2019-02-05T09:32:36.159Z,43.77
2019-02-05T09:35:08.547Z,43.63
2019-02-05T09:37:38.731Z,41.37
2019-02-05T09:40:17.318Z,40.80
2019-02-05T09:42:47.415Z,39.87
2019-02-05T09:45:21.191Z,40.93
2019-02-05T09:47:51.577Z,44.97
2019-02-05T09:50:21.832Z,47.53
2019-02-05T09:52:52.060Z,47.83
2019-02-05T09:55:22.408Z,46.23
2019-02-05T09:57:52.683Z,40.40
2019-02-05T10:00:25.686Z,39.30
2019-02-05T10:02:56.142Z,41.90
2019-02-05T10:05:31.276Z,42.17
2019-02-05T10:08:01.639Z,41.87
2019-02-05T10:10:32.883Z,39.10
2019-02-05T10:13:06.507Z,41.97
2019-02-05T10:15:39.408Z,39.30
2019-02-05T10:18:12.187Z,39.50
2019-02-05T10:20:42.295Z,39.37
2019-02-05T10:23:12.445Z,38.87
2019-02-05T10:25:42.659Z,38.67
2019-02-05T10:28:12.729Z,40.63
2019-02-05T10:30:44.380Z,38.10
2019-02-05T10:33:14.745Z,38.43
2019-02-05T10:35:45.103Z,39.67
2019-02-05T10:38:15.099Z,38.27
2019-02-05T10:40:46.566Z,34.10
2019-02-05T10:43:16.665Z,33.53
2019-02-05T10:45:47.043Z,33.47
2019-02-05T10:48:17.199Z,32.00
2019-02-05T10:50:47.299Z,32.67
2019-02-05T10:53:17.799Z,30.73
2019-02-05T10:55:48.774Z,32.43
2019-02-05T10:58:19.439Z,33.57
2019-02-05T11:00:50.660Z,30.33
2019-02-05T11:03:22.176Z,30.50
2019-02-05T11:05:52.146Z,33.63
2019-02-05T11:08:22.287Z,28.20
2019-02-05T11:10:52.579Z,29.90
2019-02-05T11:13:22.668Z,26.83
2019-02-05T11:15:53.064Z,29.90
2019-02-05T11:18:24.491Z,35.10
2019-02-05T11:20:54.587Z,33.47
2019-02-05T11:23:24.567Z,28.63
2019-02-05T11:25:54.715Z,30.10
2019-02-05T11:28:24.839Z,30.10
2019-02-05T11:30:55.513Z,33.00
2019-02-05T11:33:25.556Z,27.80
2019-02-05T11:35:55.691Z,31.43
2019-02-05T11:38:25.737Z,25.53
2019-02-05T11:40:56.480Z,28.20
2019-02-05T11:43:28.823Z,27.13
2019-02-05T11:45:59.198Z,30.47
2019-02-05T11:48:29.993Z,30.43
2019-02-05T11:51:00.047Z,29.60
2019-02-05T11:53:30.091Z,28.03
2019-02-05T11:56:00.231Z,30.30
2019-02-05T11:58:30.300Z,29.67
2019-02-05T12:01:01.877Z,28.77
2019-02-05T12:03:32.039Z,29.77
2019-02-05T12:06:02.152Z,26.63
2019-02-05T12:08:32.262Z,27.50
2019-02-05T12:11:06.581Z,31.20
2019-02-05T12:13:36.704Z,30.70
2019-02-05T12:16:06.978Z,28.97
2019-02-05T12:18:37.061Z,28.97
2019-02-05T12:21:07.245Z,31.03
2019-02-05T12:23:37.330Z,30.10
2019-02-05T12:26:07.505Z,31.40
2019-02-05T12:28:37.556Z,31.30
2019-02-05T12:31:07.868Z,27.00
2019-02-05T12:33:38.015Z,31.10
2019-02-05T12:36:09.595Z,26.97
2019-02-05T12:38:39.651Z,27.67
2019-02-05T12:41:09.717Z,31.87
2019-02-05T12:43:39.766Z,26.87
2019-02-05T12:46:10.983Z,29.37
2019-02-05T12:48:41.023Z,26.83
2019-02-05T12:51:11.175Z,27.10
2019-02-05T12:53:41.287Z,28.80
2019-02-05T12:56:11.443Z,29.00
2019-02-05T12:58:41.554Z,27.70
2019-02-05T13:01:11.771Z,28.87
2019-02-05T13:03:41.944Z,27.13
2019-02-05T13:06:12.143Z,31.37
2019-02-05T13:08:42.132Z,24.70
2019-02-05T13:11:12.206Z,28.07
2019-02-05T13:13:42.233Z,26.47
2019-02-05T13:16:12.298Z,28.40
2019-02-05T13:18:42.475Z,23.70
2019-02-05T13:21:12.488Z,24.43
2019-02-05T13:23:42.643Z,25.90
2019-02-05T13:26:13.747Z,26.20
2019-02-05T13:28:44.015Z,29.90
2019-02-05T13:31:14.035Z,24.33
2019-02-05T13:33:44.683Z,24.27
2019-02-05T13:36:14.874Z,27.07
2019-02-05T13:38:44.907Z,22.67
2019-02-05T13:41:15.331Z,21.47
2019-02-05T13:43:45.339Z,25.23
2019-02-05T13:46:15.387Z,23.07
2019-02-05T13:48:46.547Z,20.77
2019-02-05T13:51:16.655Z,26.80
2019-02-05T13:53:46.669Z,23.50
2019-02-05T13:56:17.471Z,24.17
2019-02-05T13:58:47.463Z,21.03
2019-02-05T14:01:20.032Z,20.57
2019-02-05T14:03:51.027Z,23.50
2019-02-05T14:06:20.998Z,19.40
2019-02-05T14:08:50.987Z,22.40
2019-02-05T14:11:22.447Z,24.37
2019-02-05T14:13:52.915Z,24.10
2019-02-05T14:16:23.228Z,22.27
2019-02-05T14:18:55.452Z,24.73
2019-02-05T14:21:24.832Z,24.33
2019-02-05T14:23:55.411Z,23.60
2019-02-05T14:26:26.742Z,24.83
2019-02-05T14:28:56.733Z,24.57
2019-02-05T14:31:31.352Z,24.07
2019-02-05T14:34:01.333Z,26.73
2019-02-05T14:36:32.139Z,26.23
2019-02-05T14:39:02.112Z,24.23
2019-02-05T14:41:32.471Z,24.77
2019-02-05T14:44:03.090Z,23.43
2019-02-05T14:46:33.187Z,25.33
2019-02-05T14:49:03.244Z,22.33
2019-02-05T14:51:34.574Z,27.67
2019-02-05T14:54:07.116Z,26.77
2019-02-05T14:56:37.260Z,28.03
2019-02-05T14:59:07.707Z,24.70
2019-02-05T15:01:43.140Z,24.97
2019-02-05T15:04:09.403Z,22.67
2019-02-05T15:06:39.439Z,25.17
2019-02-05T15:09:10.443Z,24.47
2019-02-05T15:11:43.364Z,27.27
2019-02-05T15:14:13.467Z,26.17
2019-02-05T15:16:44.323Z,24.57
2019-02-05T15:19:15.839Z,27.60
2019-02-05T15:21:45.934Z,26.33
2019-02-05T15:24:16.062Z,26.33
2019-02-05T15:26:46.210Z,26.30
2019-02-05T15:29:17.755Z,29.73
2019-02-05T15:31:54.180Z,28.93
2019-02-05T15:34:20.949Z,26.87
2019-02-05T15:36:51.738Z,24.30
2019-02-05T15:39:21.540Z,27.93
2019-02-05T15:41:52.422Z,26.73
2019-02-05T15:44:22.535Z,27.00
2019-02-05T15:46:52.602Z,30.90
2019-02-05T15:49:23.339Z,31.23
2019-02-05T15:51:53.533Z,26.40
2019-02-05T15:54:24.514Z,29.03
2019-02-05T15:56:54.799Z,29.30
2019-02-05T15:59:25.484Z,26.73
2019-02-05T16:02:06.002Z,26.27
2019-02-05T16:04:29.123Z,27.00
2019-02-05T16:06:59.622Z,25.60
2019-02-05T16:09:31.596Z,26.03
2019-02-05T16:12:02.987Z,23.83
2019-02-05T16:14:33.541Z,28.93
2019-02-05T16:17:03.591Z,26.00
2019-02-05T16:19:34.495Z,24.60
2019-02-05T16:22:06.384Z,27.47
2019-02-05T16:24:36.710Z,27.57
2019-02-05T16:27:07.547Z,27.73
2019-02-05T16:29:38.951Z,29.83
2019-02-05T16:32:17.288Z,32.90
2019-02-05T16:34:41.130Z,31.43
2019-02-05T16:37:13.250Z,30.10
2019-02-05T16:39:45.698Z,30.77
2019-02-05T16:42:16.623Z,31.70
2019-02-05T16:44:46.587Z,29.67
2019-02-05T16:47:16.743Z,30.03
2019-02-05T16:49:50.271Z,31.60
2019-02-05T16:52:20.823Z,36.83
2019-02-05T16:54:52.238Z,35.27
2019-02-05T16:57:23.246Z,36.47
2019-02-05T16:59:55.059Z,34.60
2019-02-05T17:02:31.511Z,35.93
2019-02-05T17:05:01.926Z,32.83
2019-02-05T17:07:32.137Z,34.77
2019-02-05T17:10:02.272Z,39.50
2019-02-05T17:12:33.781Z,36.63
2019-02-05T17:15:06.463Z,41.47
2019-02-05T17:17:36.573Z,41.00
2019-02-05T17:20:09.801Z,40.13
2019-02-05T17:22:40.032Z,43.17
2019-02-05T17:25:13.406Z,46.97
2019-02-05T17:27:44.023Z,44.83
2019-02-05T17:30:16.752Z,47.20
2019-02-05T17:32:48.111Z,47.70
2019-02-05T17:35:18.205Z,51.77
2019-02-05T17:37:48.641Z,54.27
2019-02-05T17:40:20.728Z,56.37
2019-02-05T17:42:51.115Z,59.47
2019-02-05T17:45:30.542Z,62.03
2019-02-05T17:48:01.551Z,58.87
2019-02-05T17:50:31.631Z,69.23
2019-02-05T17:53:03.345Z,63.73
2019-02-05T17:55:33.788Z,59.37
2019-02-05T17:58:04.029Z,71.27
2019-02-05T18:00:48.667Z,66.20
2019-02-05T18:03:19.956Z,73.23
2019-02-05T18:05:51.149Z,70.20
2019-02-05T18:08:21.300Z,71.10
2019-02-05T18:10:51.639Z,80.07
2019-02-05T18:13:23.079Z,79.93
2019-02-05T18:15:53.211Z,70.23
2019-02-05T18:18:25.237Z,82.83
2019-02-05T18:20:56.716Z,73.40
2019-02-05T18:23:27.099Z,79.87
2019-02-05T18:25:57.165Z,80.77
2019-02-05T18:28:27.256Z,78.73
2019-02-05T18:30:58.871Z,84.47
2019-02-05T18:33:28.899Z,76.20
2019-02-05T18:35:58.979Z,74.13
2019-02-05T18:38:29.044Z,73.57
2019-02-05T18:40:59.428Z,76.77
2019-02-05T18:43:29.473Z,77.37
2019-02-05T18:46:00.527Z,79.83
2019-02-05T18:48:30.947Z,73.40
2019-02-05T18:51:00.975Z,84.57
2019-02-05T18:53:32.523Z,77.57
2019-02-05T18:56:02.723Z,79.83
2019-02-05T18:58:34.506Z,83.67
2019-02-05T19:01:06.112Z,74.93
2019-02-05T19:03:37.169Z,85.53
2019-02-05T19:06:08.640Z,75.40
2019-02-05T19:08:39.477Z,81.93
2019-02-05T19:11:09.966Z,79.07
2019-02-05T19:13:40.222Z,79.87
2019-02-05T19:16:10.343Z,83.00
2019-02-05T19:18:42.016Z,78.10
2019-02-05T19:21:12.301Z,83.60
2019-02-05T19:23:42.538Z,79.43
2019-02-05T19:26:14.549Z,88.63
2019-02-05T19:28:45.214Z,89.00
2019-02-05T19:31:20.563Z,84.37
2019-02-05T19:33:51.108Z,96.00
2019-02-05T19:36:21.335Z,94.47
2019-02-05T19:38:51.675Z,91.07
2019-02-05T19:41:22.158Z,103.30
2019-02-05T19:43:55.167Z,93.30
2019-02-05T19:46:42.590Z,100.37
2019-02-05T19:49:21.631Z,103.20
2019-02-05T19:51:51.260Z,102.60
2019-02-05T19:54:22.135Z,108.37
2019-02-05T19:56:55.536Z,110.37
2019-02-05T19:59:26.360Z,108.50
2019-02-05T20:01:59.069Z,97.83
2019-02-05T20:04:30.339Z,107.73
2019-02-05T20:07:02.397Z,113.70
2019-02-05T20:09:34.011Z,107.20
2019-02-05T20:12:05.723Z,123.93
2019-02-05T20:14:35.938Z,108.67
2019-02-05T20:17:06.881Z,113.57
2019-02-05T20:19:37.076Z,122.80
2019-02-05T20:22:07.388Z,116.23
2019-02-05T20:24:37.640Z,118.63
2019-02-05T20:27:08.152Z,117.57
2019-02-05T20:29:38.365Z,114.73
2019-02-05T20:32:08.752Z,132.57
2019-02-05T20:34:39.374Z,119.57
2019-02-05T20:37:09.695Z,123.23
2019-02-05T20:39:40.108Z,127.63
2019-02-05T20:42:10.253Z,122.00
2019-02-05T20:44:40.031Z,125.60
2019-02-05T20:47:10.013Z,126.83
2019-02-05T20:49:40.075Z,139.20
2019-02-05T20:52:09.919Z,131.70
2019-02-05T20:54:39.692Z,128.70
2019-02-05T20:57:10.055Z,130.67
2019-02-05T20:59:39.694Z,122.03
2019-02-05T21:02:09.831Z,137.30
2019-02-05T21:04:48.008Z,129.10
2019-02-05T21:07:12.268Z,134.33
2019-02-05T21:09:42.362Z,126.03
2019-02-05T21:12:12.408Z,133.93
2019-02-05T21:14:42.085Z,137.90
2019-02-05T21:17:12.380Z,135.17
2019-02-05T21:19:42.144Z,148.87
2019-02-05T21:22:11.925Z,131.70
2019-02-05T21:24:41.675Z,135.63
2019-02-05T21:27:11.552Z,131.47
2019-02-05T21:29:41.371Z,126.93
2019-02-05T21:32:11.139Z,138.50
2019-02-05T21:34:40.871Z,128.57
2019-02-05T21:37:10.506Z,125.37
2019-02-05T21:39:40.341Z,139.13
2019-02-05T21:42:10.063Z,135.03
2019-02-05T21:44:39.673Z,147.50
2019-02-05T21:47:09.331Z,137.33
2019-02-05T21:49:39.028Z,150.87
2019-02-05T21:52:08.736Z,149.23
2019-02-05T21:54:38.537Z,140.97
2019-02-05T21:57:08.327Z,151.30
2019-02-05T21:59:38.031Z,147.13
2019-02-05T22:02:08.022Z,144.03
2019-02-05T22:04:37.966Z,151.87
2019-02-05T22:07:08.014Z,148.03
2019-02-05T22:09:37.876Z,144.50
2019-02-05T22:12:07.625Z,143.33
2019-02-05T22:14:37.758Z,155.83
2019-02-05T22:17:07.804Z,149.53
2019-02-05T22:19:37.634Z,156.60
2019-02-05T22:22:07.937Z,150.63
2019-02-05T22:24:37.939Z,149.13
2019-02-05T22:27:08.022Z,141.63
2019-02-05T22:29:38.210Z,148.33
2019-02-05T22:32:08.168Z,150.63
2019-02-05T22:34:40.683Z,145.03
2019-02-05T22:37:10.910Z,153.83
2019-02-05T22:39:40.978Z,138.30
2019-02-05T22:42:10.710Z,141.57
2019-02-05T22:44:40.712Z,141.77
2019-02-05T22:47:10.836Z,142.53
2019-02-05T22:49:40.939Z,148.63
2019-02-05T22:52:13.392Z,149.13
2019-02-05T22:54:43.280Z,152.93
2019-02-05T22:57:12.948Z,158.63
2019-02-05T22:59:43.064Z,158.57
2019-02-05T23:02:13.083Z,163.63
2019-02-05T23:04:50.658Z,157.97
2019-02-05T23:07:17.589Z,155.97
2019-02-05T23:09:50.082Z,169.40
2019-02-05T23:12:26.797Z,154.80
2019-02-05T23:15:03.028Z,160.87
2019-02-05T23:17:32.751Z,163.33
2019-02-05T23:20:02.828Z,163.87
2019-02-05T23:22:32.584Z,153.40
2019-02-05T23:25:02.428Z,152.43
2019-02-05T23:27:32.168Z,156.13
2019-02-05T23:30:02.093Z,161.40
2019-02-05T23:32:31.724Z,163.93
2019-02-05T23:35:02.642Z,161.23
2019-02-05T23:37:32.717Z,153.63
2019-02-05T23:40:03.116Z,149.13
2019-02-05T23:42:32.810Z,143.83
2019-02-05T23:45:02.617Z,161.47
2019-02-05T23:47:32.557Z,155.17
2019-02-05T23:50:02.447Z,147.97
2019-02-05T23:52:32.177Z,147.20
2019-02-05T23:55:02.341Z,151.33
2019-02-05T23:57:32.072Z,163.30
